sensor_id;sensor_type;location;lat;lon;timestamp;temperature;humidity
15239;DHT22;7722;53.274;9.500;2023-02-15T00:00:11;2.80;99.90
15239;DHT22;7722;53.274;9.500;2023-02-15T00:02:39;2.80;99.90
15239;DHT22;7722;53.274;9.500;2023-02-15T00:05:07;2.80;99.90
15239;DHT22;7722;53.274;9.500;2023-02-15T00:07:34;2.50;99.90
15239;DHT22;7722;53.274;9.500;2023-02-15T00:10:01;2.70;99.90
15239;DHT22;7722;53.274;9.500;2023-02-15T00:12:41;2.70;99.90
15239;DHT22;7722;53.274;9.500;2023-02-15T00:15:11;2.60;99.90
15239;DHT22;7722;53.274;9.500;2023-02-15T00:17:38;2.80;99.90
15239;DHT22;7722;53.274;9.500;2023-02-15T00:20:06;2.80;99.90
15239;DHT22;7722;53.274;9.500;2023-02-15T00:22:33;2.70;99.90
15239;DHT22;7722;53.274;9.500;2023-02-15T00:25:00;2.80;99.90
15239;DHT22;7722;53.274;9.500;2023-02-15T00:27:27;2.60;99.90
15239;DHT22;7722;53.274;9.500;2023-02-15T00:29:56;2.60;99.90
15239;DHT22;7722;53.274;9.500;2023-02-15T00:32:23;2.80;99.90
15239;DHT22;7722;53.274;9.500;2023-02-15T00:34:50;2.70;99.90
15239;DHT22;7722;53.274;9.500;2023-02-15T00:37:17;2.80;99.90
15239;DHT22;7722;53.274;9.500;2023-02-15T00:39:44;2.80;99.90
15239;DHT22;7722;53.274;9.500;2023-02-15T00:42:11;2.70;99.90
15239;DHT22;7722;53.274;9.500;2023-02-15T00:44:38;2.80;99.90
15239;DHT22;7722;53.274;9.500;2023-02-15T00:47:07;2.60;99.90
15239;DHT22;7722;53.274;9.500;2023-02-15T00:49:34;2.80;99.90
15239;DHT22;7722;53.274;9.500;2023-02-15T00:52:01;2.90;99.90
15239;DHT22;7722;53.274;9.500;2023-02-15T00:54:28;2.60;99.90
15239;DHT22;7722;53.274;9.500;2023-02-15T00:56:55;2.90;99.90
15239;DHT22;7722;53.274;9.500;2023-02-15T00:59:22;2.60;99.90
15239;DHT22;7722;53.274;9.500;2023-02-15T01:01:49;2.70;99.90
15239;DHT22;7722;53.274;9.500;2023-02-15T01:04:17;2.80;99.90
15239;DHT22;7722;53.274;9.500;2023-02-15T01:06:44;2.80;99.90
15239;DHT22;7722;53.274;9.500;2023-02-15T01:09:11;2.80;99.90
15239;DHT22;7722;53.274;9.500;2023-02-15T01:11:39;2.70;99.90
15239;DHT22;7722;53.274;9.500;2023-02-15T01:14:06;2.70;99.90
15239;DHT22;7722;53.274;9.500;2023-02-15T01:16:33;2.70;99.90
15239;DHT22;7722;53.274;9.500;2023-02-15T01:19:00;2.80;99.90
15239;DHT22;7722;53.274;9.500;2023-02-15T01:21:29;2.70;99.90
15239;DHT22;7722;53.274;9.500;2023-02-15T01:24:00;2.70;99.90
15239;DHT22;7722;53.274;9.500;2023-02-15T01:26:27;2.70;99.90
15239;DHT22;7722;53.274;9.500;2023-02-15T01:28:54;2.70;99.90
15239;DHT22;7722;53.274;9.500;2023-02-15T01:31:21;2.60;99.90
15239;DHT22;7722;53.274;9.500;2023-02-15T01:33:49;2.60;99.90
15239;DHT22;7722;53.274;9.500;2023-02-15T01:36:16;2.60;99.90
15239;DHT22;7722;53.274;9.500;2023-02-15T01:38:45;2.60;99.90
15239;DHT22;7722;53.274;9.500;2023-02-15T01:41:12;2.60;99.90
15239;DHT22;7722;53.274;9.500;2023-02-15T01:43:51;2.50;99.90
15239;DHT22;7722;53.274;9.500;2023-02-15T01:46:20;2.50;99.90
15239;DHT22;7722;53.274;9.500;2023-02-15T01:48:52;2.50;99.90
15239;DHT22;7722;53.274;9.500;2023-02-15T01:51:23;2.50;99.90
15239;DHT22;7722;53.274;9.500;2023-02-15T01:53:54;2.50;99.90
15239;DHT22;7722;53.274;9.500;2023-02-15T01:56:25;2.60;99.90
15239;DHT22;7722;53.274;9.500;2023-02-15T01:58:57;2.50;99.90
15239;DHT22;7722;53.274;9.500;2023-02-15T02:01:26;2.40;99.90
15239;DHT22;7722;53.274;9.500;2023-02-15T02:03:58;2.50;99.90
15239;DHT22;7722;53.274;9.500;2023-02-15T02:06:27;2.40;99.90
15239;DHT22;7722;53.274;9.500;2023-02-15T02:08:56;2.40;99.90
15239;DHT22;7722;53.274;9.500;2023-02-15T02:11:24;2.50;99.90
15239;DHT22;7722;53.274;9.500;2023-02-15T02:13:52;2.50;99.90
15239;DHT22;7722;53.274;9.500;2023-02-15T02:16:23;2.40;99.90
15239;DHT22;7722;53.274;9.500;2023-02-15T02:19:05;2.40;99.90
15239;DHT22;7722;53.274;9.500;2023-02-15T02:21:58;2.30;99.90
15239;DHT22;7722;53.274;9.500;2023-02-15T02:25:01;2.30;99.90
15239;DHT22;7722;53.274;9.500;2023-02-15T02:27:37;2.20;99.90
15239;DHT22;7722;53.274;9.500;2023-02-15T02:33:32;2.20;99.90
15239;DHT22;7722;53.274;9.500;2023-02-15T02:36:09;2.20;99.90
15239;DHT22;7722;53.274;9.500;2023-02-15T02:38:48;2.10;99.90
15239;DHT22;7722;53.274;9.500;2023-02-15T02:41:26;2.20;99.90
15239;DHT22;7722;53.274;9.500;2023-02-15T02:44:02;2.10;99.90
15239;DHT22;7722;53.274;9.500;2023-02-15T02:46:37;2.20;99.90
15239;DHT22;7722;53.274;9.500;2023-02-15T02:49:07;2.20;99.90
15239;DHT22;7722;53.274;9.500;2023-02-15T02:51:34;2.10;99.90
15239;DHT22;7722;53.274;9.500;2023-02-15T02:54:04;2.20;99.90
15239;DHT22;7722;53.274;9.500;2023-02-15T02:56:36;2.10;99.90
15239;DHT22;7722;53.274;9.500;2023-02-15T02:59:07;2.10;99.90
15239;DHT22;7722;53.274;9.500;2023-02-15T03:01:39;2.10;99.90
15239;DHT22;7722;53.274;9.500;2023-02-15T03:04:11;2.10;99.90
15239;DHT22;7722;53.274;9.500;2023-02-15T03:06:42;2.10;99.90
15239;DHT22;7722;53.274;9.500;2023-02-15T03:09:17;2.10;99.90
15239;DHT22;7722;53.274;9.500;2023-02-15T03:11:47;2.10;99.90
15239;DHT22;7722;53.274;9.500;2023-02-15T03:14:17;2.00;99.90
15239;DHT22;7722;53.274;9.500;2023-02-15T03:16:47;2.10;99.90
15239;DHT22;7722;53.274;9.500;2023-02-15T03:19:20;2.00;99.90
15239;DHT22;7722;53.274;9.500;2023-02-15T03:21:51;2.00;99.90
15239;DHT22;7722;53.274;9.500;2023-02-15T03:24:32;1.90;99.90
15239;DHT22;7722;53.274;9.500;2023-02-15T03:27:03;1.90;99.90
15239;DHT22;7722;53.274;9.500;2023-02-15T03:29:33;2.00;99.90
15239;DHT22;7722;53.274;9.500;2023-02-15T03:32:03;1.90;99.90
15239;DHT22;7722;53.274;9.500;2023-02-15T03:34:33;1.90;99.90
15239;DHT22;7722;53.274;9.500;2023-02-15T03:37:05;1.90;99.90
15239;DHT22;7722;53.274;9.500;2023-02-15T03:39:39;2.00;99.90
15239;DHT22;7722;53.274;9.500;2023-02-15T03:42:13;1.90;99.90
15239;DHT22;7722;53.274;9.500;2023-02-15T03:44:50;1.90;99.90
15239;DHT22;7722;53.274;9.500;2023-02-15T03:47:22;2.00;99.90
15239;DHT22;7722;53.274;9.500;2023-02-15T03:49:55;1.90;99.90
15239;DHT22;7722;53.274;9.500;2023-02-15T03:52:26;1.90;99.90
15239;DHT22;7722;53.274;9.500;2023-02-15T03:54:55;1.80;99.90
15239;DHT22;7722;53.274;9.500;2023-02-15T03:57:24;1.90;99.90
15239;DHT22;7722;53.274;9.500;2023-02-15T04:00:13;1.80;99.90
15239;DHT22;7722;53.274;9.500;2023-02-15T04:03:22;1.70;99.90
15239;DHT22;7722;53.274;9.500;2023-02-15T04:05:52;1.70;99.90
15239;DHT22;7722;53.274;9.500;2023-02-15T04:08:19;1.80;99.90
15239;DHT22;7722;53.274;9.500;2023-02-15T04:11:06;1.80;99.90
15239;DHT22;7722;53.274;9.500;2023-02-15T04:13:32;1.70;99.90
15239;DHT22;7722;53.274;9.500;2023-02-15T04:15:59;1.80;99.90
15239;DHT22;7722;53.274;9.500;2023-02-15T04:18:32;1.70;99.90
15239;DHT22;7722;53.274;9.500;2023-02-15T04:21:19;1.80;99.90
15239;DHT22;7722;53.274;9.500;2023-02-15T04:24:05;1.60;99.90
15239;DHT22;7722;53.274;9.500;2023-02-15T04:26:50;1.60;99.90
15239;DHT22;7722;53.274;9.500;2023-02-15T04:29:18;1.60;99.90
15239;DHT22;7722;53.274;9.500;2023-02-15T04:31:45;1.60;99.90
15239;DHT22;7722;53.274;9.500;2023-02-15T04:34:13;1.60;99.90
15239;DHT22;7722;53.274;9.500;2023-02-15T04:36:42;1.40;99.90
15239;DHT22;7722;53.274;9.500;2023-02-15T04:39:12;1.50;99.90
15239;DHT22;7722;53.274;9.500;2023-02-15T04:41:41;1.50;99.90
15239;DHT22;7722;53.274;9.500;2023-02-15T04:44:08;1.30;99.90
15239;DHT22;7722;53.274;9.500;2023-02-15T04:46:35;1.40;99.90
15239;DHT22;7722;53.274;9.500;2023-02-15T04:49:02;1.30;99.90
15239;DHT22;7722;53.274;9.500;2023-02-15T04:51:29;1.30;99.90
15239;DHT22;7722;53.274;9.500;2023-02-15T04:53:58;1.30;99.90
15239;DHT22;7722;53.274;9.500;2023-02-15T04:56:25;1.20;99.90
15239;DHT22;7722;53.274;9.500;2023-02-15T04:58:52;1.20;99.90
15239;DHT22;7722;53.274;9.500;2023-02-15T05:01:19;1.30;99.90
15239;DHT22;7722;53.274;9.500;2023-02-15T05:03:46;1.30;99.90
15239;DHT22;7722;53.274;9.500;2023-02-15T05:06:13;1.10;99.90
15239;DHT22;7722;53.274;9.500;2023-02-15T05:08:40;1.00;99.90
15239;DHT22;7722;53.274;9.500;2023-02-15T05:11:08;1.10;99.90
15239;DHT22;7722;53.274;9.500;2023-02-15T05:13:35;1.10;99.90
15239;DHT22;7722;53.274;9.500;2023-02-15T05:16:02;1.10;99.90
15239;DHT22;7722;53.274;9.500;2023-02-15T05:18:29;1.10;99.90
15239;DHT22;7722;53.274;9.500;2023-02-15T05:20:56;1.10;99.90
15239;DHT22;7722;53.274;9.500;2023-02-15T05:23:23;0.90;99.90
15239;DHT22;7722;53.274;9.500;2023-02-15T05:25:50;0.90;99.90
15239;DHT22;7722;53.274;9.500;2023-02-15T05:28:37;1.00;99.90
15239;DHT22;7722;53.274;9.500;2023-02-15T05:31:06;1.00;99.90
15239;DHT22;7722;53.274;9.500;2023-02-15T05:33:34;0.80;99.90
15239;DHT22;7722;53.274;9.500;2023-02-15T05:36:02;0.80;99.90
15239;DHT22;7722;53.274;9.500;2023-02-15T05:38:29;1.00;99.90
15239;DHT22;7722;53.274;9.500;2023-02-15T05:40:56;0.90;99.90
15239;DHT22;7722;53.274;9.500;2023-02-15T05:43:23;0.90;99.90
15239;DHT22;7722;53.274;9.500;2023-02-15T05:45:54;0.80;99.90
15239;DHT22;7722;53.274;9.500;2023-02-15T05:48:23;0.80;99.90
15239;DHT22;7722;53.274;9.500;2023-02-15T05:50:57;0.80;99.90
15239;DHT22;7722;53.274;9.500;2023-02-15T05:53:25;0.70;99.90
15239;DHT22;7722;53.274;9.500;2023-02-15T05:55:52;0.50;99.90
15239;DHT22;7722;53.274;9.500;2023-02-15T05:58:19;0.70;99.90
15239;DHT22;7722;53.274;9.500;2023-02-15T06:00:46;0.70;99.90
15239;DHT22;7722;53.274;9.500;2023-02-15T06:03:15;0.50;99.90
15239;DHT22;7722;53.274;9.500;2023-02-15T06:05:42;0.60;99.90
15239;DHT22;7722;53.274;9.500;2023-02-15T06:08:09;0.40;99.90
15239;DHT22;7722;53.274;9.500;2023-02-15T06:10:36;0.40;99.90
15239;DHT22;7722;53.274;9.500;2023-02-15T06:13:03;0.50;99.90
15239;DHT22;7722;53.274;9.500;2023-02-15T06:15:30;0.60;99.90
15239;DHT22;7722;53.274;9.500;2023-02-15T06:17:57;0.60;99.90
15239;DHT22;7722;53.274;9.500;2023-02-15T06:20:25;0.60;99.90
15239;DHT22;7722;53.274;9.500;2023-02-15T06:22:52;0.50;99.90
15239;DHT22;7722;53.274;9.500;2023-02-15T06:25:19;0.40;99.90
15239;DHT22;7722;53.274;9.500;2023-02-15T06:27:46;0.30;99.90
15239;DHT22;7722;53.274;9.500;2023-02-15T06:30:14;0.50;99.90
15239;DHT22;7722;53.274;9.500;2023-02-15T06:32:41;0.30;99.90
15239;DHT22;7722;53.274;9.500;2023-02-15T06:35:08;0.30;99.90
15239;DHT22;7722;53.274;9.500;2023-02-15T06:37:36;0.30;99.90
15239;DHT22;7722;53.274;9.500;2023-02-15T06:40:04;0.30;99.90
15239;DHT22;7722;53.274;9.500;2023-02-15T06:42:31;0.40;99.90
15239;DHT22;7722;53.274;9.500;2023-02-15T06:44:58;0.20;99.90
15239;DHT22;7722;53.274;9.500;2023-02-15T06:47:26;0.10;99.90
15239;DHT22;7722;53.274;9.500;2023-02-15T06:49:53;0.10;99.90
15239;DHT22;7722;53.274;9.500;2023-02-15T06:52:20;0.30;99.90
15239;DHT22;7722;53.274;9.500;2023-02-15T06:54:48;0.20;99.90
15239;DHT22;7722;53.274;9.500;2023-02-15T06:57:15;0.10;99.90
15239;DHT22;7722;53.274;9.500;2023-02-15T06:59:42;0.10;99.90
15239;DHT22;7722;53.274;9.500;2023-02-15T07:02:11;0.00;99.90
15239;DHT22;7722;53.274;9.500;2023-02-15T07:04:38;0.20;99.90
15239;DHT22;7722;53.274;9.500;2023-02-15T07:07:08;0.00;99.90
15239;DHT22;7722;53.274;9.500;2023-02-15T07:09:36;0.00;99.90
15239;DHT22;7722;53.274;9.500;2023-02-15T07:12:04;0.00;99.90
15239;DHT22;7722;53.274;9.500;2023-02-15T07:14:49;0.20;99.90
15239;DHT22;7722;53.274;9.500;2023-02-15T07:17:17;0.10;99.90
15239;DHT22;7722;53.274;9.500;2023-02-15T07:19:44;0.10;99.90
15239;DHT22;7722;53.274;9.500;2023-02-15T07:22:11;0.20;99.90
15239;DHT22;7722;53.274;9.500;2023-02-15T07:24:38;0.10;99.90
15239;DHT22;7722;53.274;9.500;2023-02-15T07:27:07;0.20;99.90
15239;DHT22;7722;53.274;9.500;2023-02-15T07:29:34;0.10;99.90
15239;DHT22;7722;53.274;9.500;2023-02-15T07:32:01;0.00;99.90
15239;DHT22;7722;53.274;9.500;2023-02-15T07:34:28;0.20;99.90
15239;DHT22;7722;53.274;9.500;2023-02-15T07:36:55;0.00;99.90
15239;DHT22;7722;53.274;9.500;2023-02-15T07:39:22;0.10;99.90
15239;DHT22;7722;53.274;9.500;2023-02-15T07:41:50;0.10;99.90
15239;DHT22;7722;53.274;9.500;2023-02-15T07:44:18;0.10;99.90
15239;DHT22;7722;53.274;9.500;2023-02-15T07:46:46;0.40;99.90
15239;DHT22;7722;53.274;9.500;2023-02-15T07:49:13;0.40;99.90
15239;DHT22;7722;53.274;9.500;2023-02-15T07:51:40;0.40;99.90
15239;DHT22;7722;53.274;9.500;2023-02-15T07:54:07;0.50;99.90
15239;DHT22;7722;53.274;9.500;2023-02-15T07:56:34;0.40;99.90
15239;DHT22;7722;53.274;9.500;2023-02-15T07:59:01;0.60;99.90
15239;DHT22;7722;53.274;9.500;2023-02-15T08:01:34;0.40;99.90
15239;DHT22;7722;53.274;9.500;2023-02-15T08:04:02;0.30;99.90
15239;DHT22;7722;53.274;9.500;2023-02-15T08:06:31;0.60;99.90
15239;DHT22;7722;53.274;9.500;2023-02-15T08:08:58;0.40;99.90
15239;DHT22;7722;53.274;9.500;2023-02-15T08:11:28;0.60;99.90
15239;DHT22;7722;53.274;9.500;2023-02-15T08:13:59;0.40;99.90
15239;DHT22;7722;53.274;9.500;2023-02-15T08:16:31;0.30;99.90
15239;DHT22;7722;53.274;9.500;2023-02-15T08:19:00;0.50;99.90
15239;DHT22;7722;53.274;9.500;2023-02-15T08:21:29;0.60;99.90
15239;DHT22;7722;53.274;9.500;2023-02-15T08:23:56;0.70;99.90
15239;DHT22;7722;53.274;9.500;2023-02-15T08:26:24;0.50;99.90
15239;DHT22;7722;53.274;9.500;2023-02-15T08:28:52;0.70;99.90
15239;DHT22;7722;53.274;9.500;2023-02-15T08:31:19;0.60;99.90
15239;DHT22;7722;53.274;9.500;2023-02-15T08:33:49;0.70;99.90
15239;DHT22;7722;53.274;9.500;2023-02-15T08:36:18;1.00;99.90
15239;DHT22;7722;53.274;9.500;2023-02-15T08:38:46;1.00;99.90
15239;DHT22;7722;53.274;9.500;2023-02-15T08:41:15;1.00;99.90
15239;DHT22;7722;53.274;9.500;2023-02-15T08:43:43;0.90;99.90
15239;DHT22;7722;53.274;9.500;2023-02-15T08:46:11;1.10;99.90
15239;DHT22;7722;53.274;9.500;2023-02-15T08:48:38;1.10;99.90
15239;DHT22;7722;53.274;9.500;2023-02-15T08:51:08;1.30;99.90
15239;DHT22;7722;53.274;9.500;2023-02-15T08:53:37;1.40;99.90
15239;DHT22;7722;53.274;9.500;2023-02-15T08:56:04;1.50;99.90
15239;DHT22;7722;53.274;9.500;2023-02-15T08:58:32;1.30;99.90
15239;DHT22;7722;53.274;9.500;2023-02-15T09:00:59;1.40;99.90
15239;DHT22;7722;53.274;9.500;2023-02-15T09:03:27;1.40;99.90
15239;DHT22;7722;53.274;9.500;2023-02-15T09:05:59;1.40;99.90
15239;DHT22;7722;53.274;9.500;2023-02-15T09:08:28;1.80;99.90
15239;DHT22;7722;53.274;9.500;2023-02-15T09:11:08;1.70;99.90
15239;DHT22;7722;53.274;9.500;2023-02-15T09:13:36;1.70;99.90
15239;DHT22;7722;53.274;9.500;2023-02-15T09:16:05;1.80;99.90
15239;DHT22;7722;53.274;9.500;2023-02-15T09:18:34;1.80;99.90
15239;DHT22;7722;53.274;9.500;2023-02-15T09:21:07;2.00;99.90
15239;DHT22;7722;53.274;9.500;2023-02-15T09:23:36;2.00;99.90
15239;DHT22;7722;53.274;9.500;2023-02-15T09:26:05;2.20;99.90
15239;DHT22;7722;53.274;9.500;2023-02-15T09:28:32;2.40;99.90
15239;DHT22;7722;53.274;9.500;2023-02-15T09:31:10;2.50;99.90
15239;DHT22;7722;53.274;9.500;2023-02-15T09:33:38;2.50;99.90
15239;DHT22;7722;53.274;9.500;2023-02-15T09:36:13;2.60;99.90
15239;DHT22;7722;53.274;9.500;2023-02-15T09:38:42;2.80;99.90
15239;DHT22;7722;53.274;9.500;2023-02-15T09:41:20;2.90;99.90
15239;DHT22;7722;53.274;9.500;2023-02-15T09:43:56;3.00;99.90
15239;DHT22;7722;53.274;9.500;2023-02-15T09:46:44;3.20;99.90
15239;DHT22;7722;53.274;9.500;2023-02-15T09:49:21;3.30;99.90
15239;DHT22;7722;53.274;9.500;2023-02-15T09:54:59;3.20;99.90
15239;DHT22;7722;53.274;9.500;2023-02-15T09:57:33;3.40;99.90
15239;DHT22;7722;53.274;9.500;2023-02-15T10:00:08;3.80;99.90
15239;DHT22;7722;53.274;9.500;2023-02-15T10:02:48;3.90;99.90
15239;DHT22;7722;53.274;9.500;2023-02-15T10:05:26;3.90;99.90
15239;DHT22;7722;53.274;9.500;2023-02-15T10:11:02;4.20;99.90
15239;DHT22;7722;53.274;9.500;2023-02-15T10:14:01;4.30;99.90
15239;DHT22;7722;53.274;9.500;2023-02-15T10:16:37;4.80;99.90
15239;DHT22;7722;53.274;9.500;2023-02-15T10:19:12;4.90;99.90
15239;DHT22;7722;53.274;9.500;2023-02-15T10:21:51;5.00;99.90
15239;DHT22;7722;53.274;9.500;2023-02-15T10:24:35;5.20;99.90
15239;DHT22;7722;53.274;9.500;2023-02-15T10:27:11;5.30;99.90
15239;DHT22;7722;53.274;9.500;2023-02-15T10:29:43;5.40;99.90
15239;DHT22;7722;53.274;9.500;2023-02-15T10:32:22;5.60;99.90
15239;DHT22;7722;53.274;9.500;2023-02-15T10:34:51;5.80;99.90
15239;DHT22;7722;53.274;9.500;2023-02-15T10:37:47;5.70;99.90
15239;DHT22;7722;53.274;9.500;2023-02-15T10:40:25;6.10;99.90
15239;DHT22;7722;53.274;9.500;2023-02-15T10:46:07;6.40;99.90
15239;DHT22;7722;53.274;9.500;2023-02-15T10:48:58;6.50;99.90
15239;DHT22;7722;53.274;9.500;2023-02-15T10:51:35;6.60;99.90
15239;DHT22;7722;53.274;9.500;2023-02-15T10:54:13;6.90;99.90
15239;DHT22;7722;53.274;9.500;2023-02-15T10:56:48;7.10;99.90
15239;DHT22;7722;53.274;9.500;2023-02-15T10:59:30;7.50;99.90
15239;DHT22;7722;53.274;9.500;2023-02-15T11:02:12;8.00;99.90
15239;DHT22;7722;53.274;9.500;2023-02-15T11:04:49;8.30;99.90
15239;DHT22;7722;53.274;9.500;2023-02-15T11:07:21;8.40;99.90
15239;DHT22;7722;53.274;9.500;2023-02-15T11:09:53;8.80;99.90
15239;DHT22;7722;53.274;9.500;2023-02-15T11:12:24;9.10;99.90
15239;DHT22;7722;53.274;9.500;2023-02-15T11:15:00;9.00;99.90
15239;DHT22;7722;53.274;9.500;2023-02-15T11:17:35;9.00;99.90
15239;DHT22;7722;53.274;9.500;2023-02-15T11:20:14;9.30;99.90
15239;DHT22;7722;53.274;9.500;2023-02-15T11:22:43;8.80;99.90
15239;DHT22;7722;53.274;9.500;2023-02-15T11:25:18;8.60;99.90
15239;DHT22;7722;53.274;9.500;2023-02-15T11:27:47;8.80;99.90
15239;DHT22;7722;53.274;9.500;2023-02-15T11:30:20;8.90;99.90
15239;DHT22;7722;53.274;9.500;2023-02-15T11:32:50;9.40;99.90
15239;DHT22;7722;53.274;9.500;2023-02-15T11:35:23;10.10;99.90
15239;DHT22;7722;53.274;9.500;2023-02-15T11:37:57;10.30;99.90
15239;DHT22;7722;53.274;9.500;2023-02-15T11:40:28;10.20;99.90
15239;DHT22;7722;53.274;9.500;2023-02-15T11:43:00;10.10;99.90
15239;DHT22;7722;53.274;9.500;2023-02-15T11:45:31;9.80;99.90
15239;DHT22;7722;53.274;9.500;2023-02-15T11:48:00;10.00;99.90
15239;DHT22;7722;53.274;9.500;2023-02-15T11:50:30;10.20;99.90
15239;DHT22;7722;53.274;9.500;2023-02-15T11:52:59;9.80;99.90
15239;DHT22;7722;53.274;9.500;2023-02-15T11:55:28;10.00;99.90
15239;DHT22;7722;53.274;9.500;2023-02-15T11:58:00;10.60;99.90
15239;DHT22;7722;53.274;9.500;2023-02-15T12:00:36;11.10;99.90
15239;DHT22;7722;53.274;9.500;2023-02-15T12:03:14;11.00;99.90
15239;DHT22;7722;53.274;9.500;2023-02-15T12:05:45;11.10;99.90
15239;DHT22;7722;53.274;9.500;2023-02-15T12:08:16;11.40;99.90
15239;DHT22;7722;53.274;9.500;2023-02-15T12:14:08;11.60;99.90
15239;DHT22;7722;53.274;9.500;2023-02-15T12:16:45;12.00;99.90
15239;DHT22;7722;53.274;9.500;2023-02-15T12:19:25;11.70;99.90
15239;DHT22;7722;53.274;9.500;2023-02-15T12:21:53;11.80;99.90
15239;DHT22;7722;53.274;9.500;2023-02-15T12:24:22;11.90;99.90
15239;DHT22;7722;53.274;9.500;2023-02-15T12:26:58;11.70;99.90
15239;DHT22;7722;53.274;9.500;2023-02-15T12:29:29;11.50;99.90
15239;DHT22;7722;53.274;9.500;2023-02-15T12:31:59;11.70;99.90
15239;DHT22;7722;53.274;9.500;2023-02-15T12:34:29;12.30;99.90
15239;DHT22;7722;53.274;9.500;2023-02-15T12:37:00;12.70;99.90
15239;DHT22;7722;53.274;9.500;2023-02-15T12:39:30;13.00;99.90
15239;DHT22;7722;53.274;9.500;2023-02-15T12:42:01;13.00;99.90
15239;DHT22;7722;53.274;9.500;2023-02-15T12:44:30;12.30;99.90
15239;DHT22;7722;53.274;9.500;2023-02-15T12:47:01;12.80;99.90
15239;DHT22;7722;53.274;9.500;2023-02-15T12:49:29;13.40;99.90
15239;DHT22;7722;53.274;9.500;2023-02-15T12:51:58;13.20;99.90
15239;DHT22;7722;53.274;9.500;2023-02-15T12:54:31;13.80;99.90
15239;DHT22;7722;53.274;9.500;2023-02-15T12:57:13;13.60;99.90
15239;DHT22;7722;53.274;9.500;2023-02-15T12:59:48;13.60;99.90
15239;DHT22;7722;53.274;9.500;2023-02-15T13:02:22;12.80;99.90
15239;DHT22;7722;53.274;9.500;2023-02-15T13:04:50;13.30;99.90
15239;DHT22;7722;53.274;9.500;2023-02-15T13:07:18;12.90;99.90
15239;DHT22;7722;53.274;9.500;2023-02-15T13:09:46;13.20;99.90
15239;DHT22;7722;53.274;9.500;2023-02-15T13:12:18;13.50;99.90
15239;DHT22;7722;53.274;9.500;2023-02-15T13:14:48;13.60;99.90
15239;DHT22;7722;53.274;9.500;2023-02-15T13:17:21;13.40;99.90
15239;DHT22;7722;53.274;9.500;2023-02-15T13:19:52;13.50;99.90
15239;DHT22;7722;53.274;9.500;2023-02-15T13:22:24;13.30;99.90
15239;DHT22;7722;53.274;9.500;2023-02-15T13:24:55;12.90;99.90
15239;DHT22;7722;53.274;9.500;2023-02-15T13:27:26;12.90;99.90
15239;DHT22;7722;53.274;9.500;2023-02-15T13:29:58;12.60;99.90
15239;DHT22;7722;53.274;9.500;2023-02-15T13:32:33;12.20;99.90
15239;DHT22;7722;53.274;9.500;2023-02-15T13:35:04;12.30;99.90
15239;DHT22;7722;53.274;9.500;2023-02-15T13:37:52;12.60;99.90
15239;DHT22;7722;53.274;9.500;2023-02-15T13:40:24;13.30;99.90
15239;DHT22;7722;53.274;9.500;2023-02-15T13:42:56;13.50;99.90
15239;DHT22;7722;53.274;9.500;2023-02-15T13:45:35;13.60;99.90
15239;DHT22;7722;53.274;9.500;2023-02-15T13:48:14;13.80;99.90
15239;DHT22;7722;53.274;9.500;2023-02-15T13:50:58;13.80;99.90
15239;DHT22;7722;53.274;9.500;2023-02-15T13:53:40;14.00;99.90
15239;DHT22;7722;53.274;9.500;2023-02-15T13:56:16;14.30;99.90
15239;DHT22;7722;53.274;9.500;2023-02-15T13:59:06;14.90;99.90
15239;DHT22;7722;53.274;9.500;2023-02-15T14:01:44;15.40;99.90
15239;DHT22;7722;53.274;9.500;2023-02-15T14:04:31;15.20;99.50
15239;DHT22;7722;53.274;9.500;2023-02-15T14:07:14;15.10;99.90
15239;DHT22;7722;53.274;9.500;2023-02-15T14:09:49;14.80;99.90
15239;DHT22;7722;53.274;9.500;2023-02-15T14:12:27;15.00;99.90
15239;DHT22;7722;53.274;9.500;2023-02-15T14:18:04;14.80;99.90
15239;DHT22;7722;53.274;9.500;2023-02-15T14:20:51;14.50;99.90
15239;DHT22;7722;53.274;9.500;2023-02-15T14:23:30;14.00;99.90
15239;DHT22;7722;53.274;9.500;2023-02-15T14:26:04;13.40;99.90
15239;DHT22;7722;53.274;9.500;2023-02-15T14:28:39;13.40;99.90
15239;DHT22;7722;53.274;9.500;2023-02-15T14:31:10;13.40;99.90
15239;DHT22;7722;53.274;9.500;2023-02-15T14:33:40;13.20;99.90
15239;DHT22;7722;53.274;9.500;2023-02-15T14:36:12;13.30;99.90
15239;DHT22;7722;53.274;9.500;2023-02-15T14:38:51;13.50;99.90
15239;DHT22;7722;53.274;9.500;2023-02-15T14:41:25;13.60;99.90
15239;DHT22;7722;53.274;9.500;2023-02-15T14:44:01;13.80;99.90
15239;DHT22;7722;53.274;9.500;2023-02-15T14:46:38;13.90;99.90
15239;DHT22;7722;53.274;9.500;2023-02-15T14:49:12;13.90;99.90
15239;DHT22;7722;53.274;9.500;2023-02-15T14:51:57;13.90;99.90
15239;DHT22;7722;53.274;9.500;2023-02-15T14:54:53;13.90;99.90
15239;DHT22;7722;53.274;9.500;2023-02-15T14:57:34;13.70;99.90
15239;DHT22;7722;53.274;9.500;2023-02-15T15:02:47;13.20;99.90
15239;DHT22;7722;53.274;9.500;2023-02-15T15:05:18;12.90;99.90
15239;DHT22;7722;53.274;9.500;2023-02-15T15:07:49;12.60;99.90
15239;DHT22;7722;53.274;9.500;2023-02-15T15:10:37;12.30;99.90
15239;DHT22;7722;53.274;9.500;2023-02-15T15:13:36;12.10;99.90
15239;DHT22;7722;53.274;9.500;2023-02-15T15:19:09;11.50;99.90
15239;DHT22;7722;53.274;9.500;2023-02-15T15:21:56;11.10;99.90
15239;DHT22;7722;53.274;9.500;2023-02-15T15:24:50;10.90;99.90
15239;DHT22;7722;53.274;9.500;2023-02-15T15:27:46;10.80;99.90
15239;DHT22;7722;53.274;9.500;2023-02-15T15:34:04;10.40;99.90
15239;DHT22;7722;53.274;9.500;2023-02-15T15:40:33;10.10;99.90
15239;DHT22;7722;53.274;9.500;2023-02-15T15:46:31;9.80;99.90
15239;DHT22;7722;53.274;9.500;2023-02-15T15:49:01;9.70;99.90
15239;DHT22;7722;53.274;9.500;2023-02-15T15:51:31;9.60;99.90
15239;DHT22;7722;53.274;9.500;2023-02-15T15:54:00;9.50;99.90
15239;DHT22;7722;53.274;9.500;2023-02-15T15:56:32;9.50;99.90
15239;DHT22;7722;53.274;9.500;2023-02-15T15:59:02;9.30;99.90
15239;DHT22;7722;53.274;9.500;2023-02-15T16:01:37;9.20;99.90
15239;DHT22;7722;53.274;9.500;2023-02-15T16:04:05;9.00;99.90
15239;DHT22;7722;53.274;9.500;2023-02-15T16:06:35;8.90;99.90
15239;DHT22;7722;53.274;9.500;2023-02-15T16:09:15;8.80;99.90
15239;DHT22;7722;53.274;9.500;2023-02-15T16:11:46;8.70;99.90
15239;DHT22;7722;53.274;9.500;2023-02-15T16:14:16;8.60;99.90
15239;DHT22;7722;53.274;9.500;2023-02-15T16:16:48;8.50;99.90
15239;DHT22;7722;53.274;9.500;2023-02-15T16:19:22;8.30;99.90
15239;DHT22;7722;53.274;9.500;2023-02-15T16:21:50;8.20;99.90
15239;DHT22;7722;53.274;9.500;2023-02-15T16:24:35;8.00;99.90
15239;DHT22;7722;53.274;9.500;2023-02-15T16:27:34;7.80;99.90
15239;DHT22;7722;53.274;9.500;2023-02-15T16:30:22;7.60;99.90
15239;DHT22;7722;53.274;9.500;2023-02-15T16:32:53;7.60;99.90
15239;DHT22;7722;53.274;9.500;2023-02-15T16:37:55;7.30;99.90
15239;DHT22;7722;53.274;9.500;2023-02-15T16:40:46;7.20;99.90
15239;DHT22;7722;53.274;9.500;2023-02-15T16:43:18;7.10;99.90
15239;DHT22;7722;53.274;9.500;2023-02-15T16:45:47;7.00;99.90
15239;DHT22;7722;53.274;9.500;2023-02-15T16:48:19;7.10;99.90
15239;DHT22;7722;53.274;9.500;2023-02-15T16:50:49;7.00;99.90
15239;DHT22;7722;53.274;9.500;2023-02-15T16:53:20;6.90;99.90
15239;DHT22;7722;53.274;9.500;2023-02-15T16:55:51;6.80;99.90
15239;DHT22;7722;53.274;9.500;2023-02-15T16:58:25;6.70;99.90
15239;DHT22;7722;53.274;9.500;2023-02-15T17:00:56;6.70;99.90
15239;DHT22;7722;53.274;9.500;2023-02-15T17:03:24;6.60;99.90
15239;DHT22;7722;53.274;9.500;2023-02-15T17:05:53;6.50;99.90